Time;durP1;ratioP1;P1;durP2;ratioP2;P2;SDS_P1;SDS_P2;PMS_P1;PMS_P2;Temp;Humidity;BMP_temperature;BMP_pressure;BME280_temperature;BME280_humidity;BME280_pressure;Samples;Min_cycle;Max_cycle;Signal;HPM_P1;HPM_P2
2023/05/21 00:01:33;;;;;;;7.22;5.20;;;;;;;;;;5036479;28;20039;-67
2023/05/21 00:03:59;;;;;;;7.25;5.80;;;;;;;;;;5054072;28;20021;-67
2023/05/21 00:06:26;;;;;;;6.20;4.78;;;;;;;;;;5053160;28;20025;-67
2023/05/21 00:08:52;;;;;;;6.32;5.55;;;;;;;;;;5053607;28;20029;-67
2023/05/21 00:11:19;;;;;;;6.88;5.00;;;;;;;;;;5054176;28;20485;-67
2023/05/21 00:13:45;;;;;;;6.43;5.05;;;;;;;;;;5054445;28;20029;-67
2023/05/21 00:16:11;;;;;;;6.25;5.43;;;;;;;;;;5053883;28;20033;-67
2023/05/21 00:18:40;;;;;;;9.60;6.57;;;;;;;;;;5053767;28;20484;-67
2023/05/21 00:21:07;;;;;;;10.85;6.43;;;;;;;;;;5053718;28;20025;-67
2023/05/21 00:23:36;;;;;;;10.05;6.00;;;;;;;;;;5054067;28;20033;-67
2023/05/21 00:26:02;;;;;;;9.15;6.18;;;;;;;;;;5053793;28;20013;-67
2023/05/21 00:28:29;;;;;;;8.20;5.88;;;;;;;;;;5053828;28;20031;-67
2023/05/21 00:30:55;;;;;;;6.25;5.65;;;;;;;;;;5053268;28;20033;-67
2023/05/21 00:33:25;;;;;;;6.85;5.40;;;;;;;;;;5052399;28;20405;-67
2023/05/21 00:35:52;;;;;;;6.70;5.57;;;;;;;;;;5053405;28;20017;-67
2023/05/21 00:38:18;;;;;;;5.95;5.22;;;;;;;;;;5053545;28;20041;-67
2023/05/21 00:40:44;;;;;;;6.05;5.30;;;;;;;;;;5053342;28;20432;-67
2023/05/21 00:43:11;;;;;;;9.27;5.35;;;;;;;;;;5053819;28;20029;-67
2023/05/21 00:45:37;;;;;;;7.88;5.75;;;;;;;;;;5053598;28;20021;-67
2023/05/21 00:48:05;;;;;;;10.90;5.47;;;;;;;;;;5053337;28;20382;-67
2023/05/21 00:50:31;;;;;;;9.40;5.13;;;;;;;;;;5053059;28;20017;-67
2023/05/21 00:52:58;;;;;;;7.22;5.32;;;;;;;;;;5053126;28;20507;-67
2023/05/21 00:55:25;;;;;;;7.65;5.88;;;;;;;;;;5053204;28;20025;-67
2023/05/21 00:57:51;;;;;;;6.05;5.18;;;;;;;;;;5053221;28;20032;-67
2023/05/21 01:00:18;;;;;;;6.45;5.80;;;;;;;;;;5053328;28;20017;-67
2023/05/21 01:02:45;;;;;;;9.23;6.38;;;;;;;;;;5053083;28;20029;-67
2023/05/21 01:05:11;;;;;;;9.55;6.93;;;;;;;;;;5052865;28;20017;-67
2023/05/21 01:07:40;;;;;;;9.75;6.13;;;;;;;;;;5053150;28;20029;-67
2023/05/21 01:10:08;;;;;;;8.18;5.95;;;;;;;;;;5052852;28;20031;-67
2023/05/21 01:12:34;;;;;;;8.73;5.30;;;;;;;;;;5053009;28;20017;-67
2023/05/21 01:15:02;;;;;;;6.20;4.85;;;;;;;;;;5052861;28;20029;-67
2023/05/21 01:17:30;;;;;;;6.55;5.30;;;;;;;;;;5052554;28;20405;-67
2023/05/21 01:19:57;;;;;;;9.18;4.68;;;;;;;;;;5052276;28;20024;-67
2023/05/21 01:22:24;;;;;;;8.43;5.03;;;;;;;;;;5052941;28;20033;-67
2023/05/21 01:24:51;;;;;;;11.60;5.15;;;;;;;;;;5052927;28;20033;-67
2023/05/21 01:27:18;;;;;;;7.15;5.10;;;;;;;;;;5052666;28;20031;-67
2023/05/21 01:29:44;;;;;;;6.10;4.80;;;;;;;;;;5052495;28;20029;-67
2023/05/21 01:32:10;;;;;;;13.60;4.90;;;;;;;;;;5052418;28;20052;-67
2023/05/21 01:34:41;;;;;;;8.20;5.32;;;;;;;;;;5052406;28;20050;-67
2023/05/21 01:37:20;;;;;;;6.38;5.75;;;;;;;;;;5051135;28;20494;-67
2023/05/21 01:39:48;;;;;;;8.25;5.82;;;;;;;;;;5052585;28;20040;-67
2023/05/21 01:42:16;;;;;;;6.90;5.80;;;;;;;;;;5052238;28;20397;-67
2023/05/21 01:44:44;;;;;;;8.60;5.60;;;;;;;;;;5052267;28;20037;-67
2023/05/21 01:47:11;;;;;;;6.80;5.18;;;;;;;;;;5052483;28;20086;-67
2023/05/21 01:49:37;;;;;;;6.72;5.00;;;;;;;;;;5051872;28;20029;-67
2023/05/21 01:52:04;;;;;;;8.10;5.60;;;;;;;;;;5052260;28;20017;-67
2023/05/21 01:54:31;;;;;;;6.43;5.43;;;;;;;;;;5052247;28;20021;-67
2023/05/21 01:56:57;;;;;;;6.22;5.40;;;;;;;;;;5052009;28;20028;-67
2023/05/21 01:59:23;;;;;;;5.50;4.47;;;;;;;;;;5051987;28;20044;-67
2023/05/21 02:01:50;;;;;;;5.90;5.32;;;;;;;;;;5052166;28;20021;-67
2023/05/21 02:04:16;;;;;;;6.32;5.00;;;;;;;;;;5051876;28;20021;-67
2023/05/21 02:06:43;;;;;;;8.88;5.03;;;;;;;;;;5052368;28;20029;-67
2023/05/21 02:09:09;;;;;;;8.18;5.53;;;;;;;;;;5052042;28;20500;-67
2023/05/21 02:11:35;;;;;;;7.38;5.20;;;;;;;;;;5051973;28;20025;-67
2023/05/21 02:14:02;;;;;;;6.63;5.25;;;;;;;;;;5052210;28;20043;-67
2023/05/21 02:16:29;;;;;;;7.05;5.28;;;;;;;;;;5051920;28;20059;-67
2023/05/21 02:18:56;;;;;;;5.43;4.93;;;;;;;;;;5051524;28;20041;-67
2023/05/21 02:21:23;;;;;;;6.32;5.15;;;;;;;;;;5051891;28;20031;-67
2023/05/21 02:23:49;;;;;;;5.90;4.57;;;;;;;;;;5050724;28;20035;-67
2023/05/21 02:26:16;;;;;;;6.93;4.90;;;;;;;;;;5052153;28;20025;-67
2023/05/21 02:28:43;;;;;;;7.60;4.70;;;;;;;;;;5051623;28;20028;-67
2023/05/21 02:31:10;;;;;;;4.93;4.43;;;;;;;;;;5054193;28;20490;-66
2023/05/21 02:33:36;;;;;;;5.88;4.38;;;;;;;;;;5055701;28;20021;-67
2023/05/21 02:36:03;;;;;;;4.93;4.35;;;;;;;;;;5088227;28;20421;-67
2023/05/21 02:38:31;;;;;;;5.57;4.82;;;;;;;;;;5055822;28;20107;-67
2023/05/21 02:40:57;;;;;;;5.30;4.80;;;;;;;;;;5055894;28;20023;-67
2023/05/21 02:43:23;;;;;;;7.75;4.55;;;;;;;;;;5055797;28;20035;-67
2023/05/21 02:45:50;;;;;;;7.07;4.50;;;;;;;;;;5055543;28;20415;-67
2023/05/21 02:48:16;;;;;;;5.35;4.85;;;;;;;;;;5055664;28;20029;-67
2023/05/21 02:50:42;;;;;;;5.40;4.45;;;;;;;;;;5055576;28;20025;-67
2023/05/21 02:53:09;;;;;;;5.97;4.25;;;;;;;;;;5055568;28;20027;-67
2023/05/21 02:55:35;;;;;;;6.38;4.80;;;;;;;;;;5054663;28;20082;-67
2023/05/21 02:58:01;;;;;;;6.32;4.90;;;;;;;;;;5055185;28;20025;-67
2023/05/21 03:00:28;;;;;;;7.32;5.10;;;;;;;;;;5055244;28;20455;-67
2023/05/21 03:02:54;;;;;;;8.13;5.15;;;;;;;;;;5055281;28;20024;-67
2023/05/21 03:05:20;;;;;;;6.03;4.82;;;;;;;;;;5054075;28;20037;-67
2023/05/21 03:07:47;;;;;;;8.82;5.60;;;;;;;;;;5055242;28;20021;-67
2023/05/21 03:10:13;;;;;;;7.35;5.03;;;;;;;;;;5055218;28;20054;-67
2023/05/21 03:12:39;;;;;;;9.52;5.05;;;;;;;;;;5054022;28;20033;-67
2023/05/21 03:15:06;;;;;;;6.10;4.68;;;;;;;;;;5055282;28;20029;-67
2023/05/21 03:17:32;;;;;;;6.72;4.85;;;;;;;;;;5055075;28;20047;-67
2023/05/21 03:19:58;;;;;;;5.70;4.80;;;;;;;;;;5055072;28;20027;-67
2023/05/21 03:22:25;;;;;;;5.63;4.80;;;;;;;;;;5054980;28;20394;-67
2023/05/21 03:24:52;;;;;;;5.75;5.00;;;;;;;;;;5055370;28;20025;-67
2023/05/21 03:27:18;;;;;;;6.35;4.75;;;;;;;;;;5054993;28;20408;-67
2023/05/21 03:29:44;;;;;;;6.93;5.13;;;;;;;;;;5053365;28;20469;-67
2023/05/21 03:32:11;;;;;;;5.68;4.90;;;;;;;;;;5054714;28;20041;-67
2023/05/21 03:34:37;;;;;;;10.77;5.10;;;;;;;;;;5054802;28;20401;-67
2023/05/21 03:37:03;;;;;;;6.35;4.68;;;;;;;;;;5054635;28;20516;-67
2023/05/21 03:39:30;;;;;;;8.75;5.10;;;;;;;;;;5054578;28;20040;-67
2023/05/21 03:41:56;;;;;;;5.63;4.93;;;;;;;;;;5054524;28;20023;-67
2023/05/21 03:44:22;;;;;;;6.70;4.80;;;;;;;;;;5054358;28;20035;-67
2023/05/21 03:46:49;;;;;;;6.07;5.28;;;;;;;;;;5054783;28;20037;-67
2023/05/21 03:49:15;;;;;;;6.00;5.10;;;;;;;;;;5054804;28;20020;-67
2023/05/21 03:51:41;;;;;;;5.82;4.68;;;;;;;;;;5054432;28;20025;-67
2023/05/21 03:54:08;;;;;;;5.88;5.13;;;;;;;;;;5054323;28;20024;-67
2023/05/21 03:56:34;;;;;;;7.95;5.13;;;;;;;;;;5054658;28;20032;-67
2023/05/21 03:59:00;;;;;;;7.60;5.00;;;;;;;;;;5053952;28;20040;-66
2023/05/21 04:01:27;;;;;;;6.13;4.93;;;;;;;;;;5054182;28;20025;-67
2023/05/21 04:03:53;;;;;;;5.93;5.32;;;;;;;;;;5054661;28;20048;-67
2023/05/21 04:06:20;;;;;;;6.55;4.68;;;;;;;;;;5054136;28;20375;-67
2023/05/21 04:08:46;;;;;;;7.15;4.80;;;;;;;;;;5053997;28;20017;-67
2023/05/21 04:11:13;;;;;;;7.40;4.95;;;;;;;;;;5054469;28;20021;-67
2023/05/21 04:13:39;;;;;;;5.65;4.72;;;;;;;;;;5053997;28;20021;-67
2023/05/21 04:16:08;;;;;;;6.45;5.50;;;;;;;;;;5053983;28;20041;-67
2023/05/21 04:18:34;;;;;;;9.25;5.72;;;;;;;;;;5053991;28;20045;-66
2023/05/21 04:21:01;;;;;;;7.22;5.30;;;;;;;;;;5053920;28;20021;-67
2023/05/21 04:23:27;;;;;;;7.00;5.60;;;;;;;;;;5054109;28;20032;-67
2023/05/21 04:25:53;;;;;;;7.38;5.65;;;;;;;;;;5054170;28;20025;-66
2023/05/21 04:28:20;;;;;;;8.55;5.88;;;;;;;;;;5053807;28;20051;-67
2023/05/21 04:30:49;;;;;;;8.27;5.95;;;;;;;;;;5053526;28;20021;-67
2023/05/21 04:33:16;;;;;;;8.43;6.28;;;;;;;;;;5054058;28;20039;-67
2023/05/21 04:35:45;;;;;;;7.03;5.57;;;;;;;;;;5053660;28;20390;-67
2023/05/21 04:38:12;;;;;;;7.32;4.85;;;;;;;;;;5053701;28;20037;-67
2023/05/21 04:40:39;;;;;;;5.00;4.50;;;;;;;;;;5053783;28;20021;-67
2023/05/21 04:43:06;;;;;;;6.55;5.50;;;;;;;;;;5053284;28;20473;-67
2023/05/21 04:45:33;;;;;;;6.13;5.20;;;;;;;;;;5053708;28;20021;-67
2023/05/21 04:47:59;;;;;;;7.00;4.97;;;;;;;;;;5053352;28;20025;-67
2023/05/21 04:50:25;;;;;;;7.03;5.70;;;;;;;;;;5053337;28;20037;-67
2023/05/21 04:52:53;;;;;;;6.47;5.25;;;;;;;;;;5052686;28;20128;-67
2023/05/21 04:55:20;;;;;;;7.72;5.45;;;;;;;;;;5053251;28;20488;-67
2023/05/21 04:57:46;;;;;;;7.32;5.60;;;;;;;;;;5052933;28;20051;-67
2023/05/21 05:00:13;;;;;;;6.15;5.35;;;;;;;;;;5053117;28;20404;-67
2023/05/21 05:02:39;;;;;;;7.57;5.53;;;;;;;;;;5053177;28;20393;-67
2023/05/21 05:05:05;;;;;;;6.40;5.60;;;;;;;;;;5053048;28;20017;-67
2023/05/21 05:07:32;;;;;;;6.32;5.65;;;;;;;;;;5052972;28;20021;-67
2023/05/21 05:09:58;;;;;;;6.28;5.50;;;;;;;;;;5053048;28;20025;-67
2023/05/21 05:12:24;;;;;;;6.60;5.82;;;;;;;;;;5052967;28;20017;-67
2023/05/21 05:14:51;;;;;;;9.10;5.22;;;;;;;;;;5052966;28;20039;-67
2023/05/21 05:17:17;;;;;;;8.63;5.47;;;;;;;;;;5052794;28;20032;-67
2023/05/21 05:19:43;;;;;;;8.55;5.75;;;;;;;;;;5052658;28;20412;-67
2023/05/21 05:22:10;;;;;;;7.03;4.90;;;;;;;;;;5052687;28;20021;-67
2023/05/21 05:24:36;;;;;;;6.10;5.45;;;;;;;;;;5052889;28;20025;-67
2023/05/21 05:27:02;;;;;;;7.10;5.20;;;;;;;;;;5052616;28;20037;-67
2023/05/21 05:29:29;;;;;;;8.95;5.03;;;;;;;;;;5052523;28;20013;-67
2023/05/21 05:31:55;;;;;;;5.00;4.50;;;;;;;;;;5052384;28;20075;-66
2023/05/21 05:34:21;;;;;;;5.88;5.28;;;;;;;;;;5052474;28;20033;-67
2023/05/21 05:36:48;;;;;;;7.50;5.15;;;;;;;;;;5052725;28;20032;-67
2023/05/21 05:39:14;;;;;;;5.75;4.97;;;;;;;;;;5052568;28;20033;-69
2023/05/21 05:41:40;;;;;;;5.63;4.68;;;;;;;;;;5052185;28;20024;-69
2023/05/21 05:44:07;;;;;;;5.03;4.53;;;;;;;;;;5052386;28;20579;-69
2023/05/21 05:46:33;;;;;;;4.93;4.43;;;;;;;;;;5052705;28;20027;-69
2023/05/21 05:48:59;;;;;;;6.25;5.15;;;;;;;;;;5052312;28;20078;-67
2023/05/21 05:51:25;;;;;;;4.68;4.22;;;;;;;;;;5052489;28;20021;-67
2023/05/21 05:53:52;;;;;;;5.40;4.90;;;;;;;;;;5052417;28;20470;-67
2023/05/21 05:56:18;;;;;;;6.18;4.72;;;;;;;;;;5052126;28;20025;-67
2023/05/21 05:58:44;;;;;;;6.97;5.15;;;;;;;;;;5052071;28;20033;-67
2023/05/21 06:01:12;;;;;;;7.13;4.55;;;;;;;;;;5052224;28;20017;-67
2023/05/21 06:03:38;;;;;;;8.68;4.90;;;;;;;;;;5049550;28;20393;-66
2023/05/21 06:06:04;;;;;;;6.22;4.90;;;;;;;;;;5051081;28;20490;-67
2023/05/21 06:08:33;;;;;;;7.25;4.95;;;;;;;;;;5052021;28;20031;-67
2023/05/21 06:11:00;;;;;;;5.70;5.10;;;;;;;;;;5051726;28;20025;-67
2023/05/21 06:13:27;;;;;;;8.88;4.97;;;;;;;;;;5052215;28;20021;-67
2023/05/21 06:15:53;;;;;;;6.43;4.88;;;;;;;;;;5052133;28;20025;-67
2023/05/21 06:18:19;;;;;;;6.15;4.45;;;;;;;;;;5051734;28;20037;-67
2023/05/21 06:20:46;;;;;;;4.95;4.47;;;;;;;;;;5051901;28;20021;-67
2023/05/21 06:23:12;;;;;;;5.57;4.28;;;;;;;;;;5051963;28;20035;-67
2023/05/21 06:25:39;;;;;;;5.35;4.50;;;;;;;;;;5052009;28;20022;-67
2023/05/21 06:28:05;;;;;;;5.22;4.70;;;;;;;;;;5051723;28;20393;-67
2023/05/21 06:30:32;;;;;;;6.47;4.55;;;;;;;;;;5051841;28;20025;-67
2023/05/21 06:32:58;;;;;;;4.70;4.28;;;;;;;;;;5051719;28;20037;-67
2023/05/21 06:35:24;;;;;;;6.95;4.55;;;;;;;;;;5052016;28;20029;-67
2023/05/21 06:37:51;;;;;;;5.05;4.55;;;;;;;;;;5051787;28;20083;-67
2023/05/21 06:40:17;;;;;;;4.65;4.10;;;;;;;;;;5051736;28;20025;-67
2023/05/21 06:42:43;;;;;;;6.90;4.35;;;;;;;;;;5051775;28;20443;-67
2023/05/21 06:45:10;;;;;;;6.68;5.03;;;;;;;;;;5051927;28;20040;-67
2023/05/21 06:47:36;;;;;;;5.97;4.03;;;;;;;;;;5051957;28;20539;-67
2023/05/21 06:50:03;;;;;;;4.70;4.28;;;;;;;;;;5051781;28;20025;-67
2023/05/21 06:52:30;;;;;;;6.13;4.40;;;;;;;;;;5051516;28;20490;-67
2023/05/21 06:54:56;;;;;;;4.85;4.35;;;;;;;;;;5051423;28;20037;-67
2023/05/21 06:57:23;;;;;;;5.35;4.25;;;;;;;;;;5050225;28;20033;-67
2023/05/21 06:59:49;;;;;;;7.15;4.25;;;;;;;;;;5051496;28;20021;-67
2023/05/21 07:02:15;;;;;;;5.80;4.30;;;;;;;;;;5051577;28;20024;-67
2023/05/21 07:04:42;;;;;;;5.20;4.70;;;;;;;;;;5051529;28;20037;-67
2023/05/21 07:07:08;;;;;;;6.75;4.50;;;;;;;;;;5051556;28;20033;-67
2023/05/21 07:09:35;;;;;;;5.97;4.68;;;;;;;;;;5051674;28;20027;-67
2023/05/21 07:12:01;;;;;;;4.63;4.00;;;;;;;;;;5051418;28;20044;-67
2023/05/21 07:14:27;;;;;;;4.35;3.58;;;;;;;;;;5051810;28;20029;-67
2023/05/21 07:16:54;;;;;;;6.90;4.38;;;;;;;;;;5053259;28;20029;-68
2023/05/21 07:19:20;;;;;;;4.45;4.05;;;;;;;;;;5055111;28;20389;-67
2023/05/21 07:21:46;;;;;;;4.50;4.00;;;;;;;;;;5054788;28;20032;-67
2023/05/21 07:24:13;;;;;;;5.13;3.85;;;;;;;;;;5054941;28;20033;-67
2023/05/21 07:26:39;;;;;;;5.13;4.07;;;;;;;;;;5055315;28;20031;-67
2023/05/21 07:29:06;;;;;;;4.93;3.63;;;;;;;;;;5054895;28;20021;-67
2023/05/21 07:31:32;;;;;;;4.50;4.10;;;;;;;;;;5054926;28;20044;-67
2023/05/21 07:33:58;;;;;;;4.90;3.42;;;;;;;;;;5055002;28;20516;-67
2023/05/21 07:36:25;;;;;;;3.70;3.40;;;;;;;;;;5054438;28;20029;-67
2023/05/21 07:38:51;;;;;;;5.20;3.42;;;;;;;;;;5054507;28;20473;-67
2023/05/21 07:41:18;;;;;;;4.15;3.00;;;;;;;;;;5054817;28;20051;-67
2023/05/21 07:43:44;;;;;;;3.63;3.33;;;;;;;;;;5054761;28;20043;-67
2023/05/21 07:46:10;;;;;;;7.40;4.00;;;;;;;;;;5054517;28;20035;-68
2023/05/21 07:48:37;;;;;;;4.40;3.40;;;;;;;;;;5054847;28;20039;-67
2023/05/21 07:51:03;;;;;;;3.85;3.55;;;;;;;;;;5054457;28;20033;-67
2023/05/21 07:53:31;;;;;;;3.13;2.85;;;;;;;;;;5054327;28;20031;-67
2023/05/21 07:55:57;;;;;;;3.35;2.67;;;;;;;;;;5054539;28;20029;-68
2023/05/21 07:58:24;;;;;;;5.05;3.10;;;;;;;;;;5054345;28;20102;-67
2023/05/21 08:00:50;;;;;;;4.55;3.65;;;;;;;;;;5054587;28;20029;-68
2023/05/21 08:03:17;;;;;;;3.35;2.70;;;;;;;;;;5054695;28;20028;-67
2023/05/21 08:05:47;;;;;;;3.28;2.90;;;;;;;;;;5052872;28;20035;-68
2023/05/21 08:08:16;;;;;;;3.37;2.70;;;;;;;;;;5054230;28;20027;-67
2023/05/21 08:10:43;;;;;;;3.53;3.22;;;;;;;;;;5054438;28;20039;-67
2023/05/21 08:13:11;;;;;;;5.47;3.63;;;;;;;;;;5054158;28;20388;-67
2023/05/21 08:15:37;;;;;;;3.35;3.05;;;;;;;;;;5054159;28;20392;-67
2023/05/21 08:18:04;;;;;;;3.33;3.03;;;;;;;;;;5053888;28;20037;-67
2023/05/21 08:20:34;;;;;;;3.10;2.80;;;;;;;;;;5053670;28;20378;-67
2023/05/21 08:23:00;;;;;;;4.32;2.67;;;;;;;;;;5053721;28;20033;-68
2023/05/21 08:25:27;;;;;;;3.50;3.20;;;;;;;;;;5053985;28;20028;-68
2023/05/21 08:27:53;;;;;;;3.88;3.00;;;;;;;;;;5052812;28;20025;-67
2023/05/21 08:30:19;;;;;;;3.78;3.40;;;;;;;;;;5053678;28;20029;-67
2023/05/21 08:32:46;;;;;;;4.95;3.53;;;;;;;;;;5053552;28;20045;-67
2023/05/21 08:35:13;;;;;;;3.25;2.95;;;;;;;;;;5053854;28;20037;-67
2023/05/21 08:37:39;;;;;;;3.33;3.03;;;;;;;;;;5053557;28;20040;-67
2023/05/21 08:40:06;;;;;;;3.67;2.80;;;;;;;;;;5053443;28;20024;-67
2023/05/21 08:42:35;;;;;;;3.47;3.17;;;;;;;;;;5053688;28;20020;-67
2023/05/21 08:45:04;;;;;;;3.60;2.97;;;;;;;;;;5053740;28;20032;-67
2023/05/21 08:47:31;;;;;;;4.05;3.05;;;;;;;;;;5053383;28;20037;-67
2023/05/21 08:49:59;;;;;;;3.00;2.80;;;;;;;;;;5053029;28;20024;-67
2023/05/21 08:52:26;;;;;;;3.08;2.85;;;;;;;;;;5053473;28;20060;-67
2023/05/21 08:54:52;;;;;;;4.45;3.05;;;;;;;;;;5053499;28;20074;-67
2023/05/21 08:57:22;;;;;;;3.20;2.90;;;;;;;;;;5053373;28;20031;-67
2023/05/21 08:59:48;;;;;;;3.60;3.30;;;;;;;;;;5053031;28;20051;-67
2023/05/21 09:02:17;;;;;;;3.80;3.35;;;;;;;;;;5053205;28;20025;-67
2023/05/21 09:04:48;;;;;;;4.68;3.53;;;;;;;;;;5052748;28;20033;-67
2023/05/21 09:07:15;;;;;;;3.20;2.90;;;;;;;;;;5051789;28;20412;-67
2023/05/21 09:09:48;;;;;;;3.50;3.20;;;;;;;;;;5053204;28;20025;-67
2023/05/21 09:12:15;;;;;;;3.17;2.88;;;;;;;;;;5052991;28;20021;-67
2023/05/21 09:14:42;;;;;;;4.95;3.25;;;;;;;;;;5052910;28;20036;-67
2023/05/21 09:17:08;;;;;;;3.65;2.75;;;;;;;;;;5052865;28;20507;-67
2023/05/21 09:19:35;;;;;;;2.90;2.70;;;;;;;;;;5052366;28;20039;-67
2023/05/21 09:22:02;;;;;;;4.15;2.92;;;;;;;;;;5052869;28;20028;-67
2023/05/21 09:24:32;;;;;;;4.55;2.65;;;;;;;;;;5052744;28;20037;-66
2023/05/21 09:26:58;;;;;;;3.60;3.30;;;;;;;;;;5052880;28;20025;-67
2023/05/21 09:29:25;;;;;;;6.45;3.03;;;;;;;;;;5052978;28;20029;-67
2023/05/21 09:31:53;;;;;;;3.63;3.33;;;;;;;;;;5052290;28;20053;-67
2023/05/21 09:34:19;;;;;;;3.83;3.45;;;;;;;;;;5052415;28;20032;-67
2023/05/21 09:36:48;;;;;;;3.30;3.00;;;;;;;;;;5052551;28;20029;-67
2023/05/21 09:39:27;;;;;;;3.67;3.15;;;;;;;;;;5051060;28;20040;-67
2023/05/21 09:41:55;;;;;;;3.00;2.70;;;;;;;;;;5052442;28;20102;-67
2023/05/21 09:44:23;;;;;;;3.50;2.70;;;;;;;;;;5052473;28;20025;-67
2023/05/21 09:46:49;;;;;;;3.25;2.60;;;;;;;;;;5052074;28;20043;-67
2023/05/21 09:49:25;;;;;;;3.42;2.65;;;;;;;;;;5051009;28;20036;-67
2023/05/21 09:51:55;;;;;;;3.60;3.30;;;;;;;;;;5052209;28;20029;-67
2023/05/21 09:54:23;;;;;;;5.72;3.05;;;;;;;;;;5052467;28;20029;-67
2023/05/21 09:56:52;;;;;;;3.53;3.22;;;;;;;;;;5052060;28;20029;-67
2023/05/21 09:59:18;;;;;;;4.63;3.05;;;;;;;;;;5052091;28;20043;-66
2023/05/21 10:01:45;;;;;;;3.15;2.85;;;;;;;;;;5052124;28;20025;-67
2023/05/21 10:04:11;;;;;;;3.25;2.95;;;;;;;;;;5052212;28;20020;-68
2023/05/21 10:06:41;;;;;;;3.33;3.03;;;;;;;;;;5052061;28;20029;-67
2023/05/21 10:09:09;;;;;;;3.10;2.90;;;;;;;;;;5052120;28;20366;-67
2023/05/21 10:11:36;;;;;;;3.47;3.17;;;;;;;;;;5052282;28;20301;-67
2023/05/21 10:14:16;;;;;;;3.35;2.80;;;;;;;;;;5050825;28;20037;-67
2023/05/21 10:16:43;;;;;;;3.20;2.90;;;;;;;;;;5051744;28;20019;-67
2023/05/21 10:19:10;;;;;;;2.88;2.63;;;;;;;;;;5052019;28;20037;-67
2023/05/21 10:21:36;;;;;;;3.15;2.50;;;;;;;;;;5052233;28;20024;-67
2023/05/21 10:24:03;;;;;;;3.00;2.70;;;;;;;;;;5051881;28;20021;-67
2023/05/21 10:26:29;;;;;;;2.70;2.38;;;;;;;;;;5051928;28;20501;-67
2023/05/21 10:28:59;;;;;;;2.60;2.40;;;;;;;;;;5052079;28;20029;-67
2023/05/21 10:31:26;;;;;;;3.25;2.40;;;;;;;;;;5051674;28;20059;-67
2023/05/21 10:33:54;;;;;;;2.72;2.50;;;;;;;;;;5051947;28;20035;-67
2023/05/21 10:36:20;;;;;;;3.10;2.80;;;;;;;;;;5051848;28;20021;-67
2023/05/21 10:38:47;;;;;;;3.05;2.35;;;;;;;;;;5051779;28;20037;-67
2023/05/21 10:41:15;;;;;;;3.28;2.72;;;;;;;;;;5052051;28;20027;-67
2023/05/21 10:43:44;;;;;;;3.83;3.03;;;;;;;;;;5051881;28;20029;-67
2023/05/21 10:46:29;;;;;;;3.40;3.10;;;;;;;;;;5051728;28;20027;-67
2023/05/21 10:49:05;;;;;;;3.05;2.75;;;;;;;;;;5051846;28;20020;-67
2023/05/21 10:51:48;;;;;;;2.60;2.40;;;;;;;;;;5052903;28;20027;-67
2023/05/21 10:54:43;;;;;;;3.30;2.50;;;;;;;;;;5055478;28;20028;-69
2023/05/21 10:57:10;;;;;;;3.40;3.10;;;;;;;;;;5050764;28;20418;-67
2023/05/21 10:59:41;;;;;;;5.40;3.30;;;;;;;;;;5054984;28;20041;-67
2023/05/21 11:02:09;;;;;;;3.38;3.08;;;;;;;;;;5055404;28;20025;-67
2023/05/21 11:04:38;;;;;;;4.00;2.47;;;;;;;;;;5055834;28;20028;-67
2023/05/21 11:07:05;;;;;;;3.70;3.40;;;;;;;;;;5055445;28;20021;-69
2023/05/21 11:09:31;;;;;;;2.67;2.20;;;;;;;;;;5055095;28;20028;-67
2023/05/21 11:11:59;;;;;;;5.38;2.92;;;;;;;;;;5055316;28;20404;-66
2023/05/21 11:14:26;;;;;;;3.28;2.63;;;;;;;;;;5053946;28;20031;-66
2023/05/21 11:16:52;;;;;;;3.42;2.60;;;;;;;;;;5055205;28;20032;-66
2023/05/21 11:19:19;;;;;;;2.45;2.25;;;;;;;;;;5054961;28;20037;-67
2023/05/21 11:21:51;;;;;;;2.55;2.35;;;;;;;;;;5055344;28;20017;-67
2023/05/21 11:24:20;;;;;;;2.47;2.28;;;;;;;;;;5054894;28;20024;-67
2023/05/21 11:26:54;;;;;;;2.53;2.33;;;;;;;;;;5053791;28;20043;-67
2023/05/21 11:29:31;;;;;;;2.40;2.20;;;;;;;;;;5054648;28;20017;-67
2023/05/21 11:32:01;;;;;;;2.28;2.08;;;;;;;;;;5054833;28;20055;-66
2023/05/21 11:34:36;;;;;;;4.07;2.45;;;;;;;;;;5055144;28;20039;-66
2023/05/21 11:39:44;;;;;;;2.00;1.77;;;;;;;;;;5054750;28;20041;-67
2023/05/21 11:42:11;;;;;;;2.22;1.83;;;;;;;;;;5054570;28;20021;-66
2023/05/21 11:44:40;;;;;;;2.38;1.90;;;;;;;;;;5054870;28;20031;-67
2023/05/21 11:47:08;;;;;;;1.80;1.70;;;;;;;;;;5054578;28;20027;-67
2023/05/21 11:49:35;;;;;;;1.70;1.60;;;;;;;;;;5054436;28;20035;-67
2023/05/21 11:52:01;;;;;;;2.50;1.35;;;;;;;;;;5054429;28;20486;-67
2023/05/21 11:54:32;;;;;;;1.30;1.20;;;;;;;;;;5054538;28;20482;-67
2023/05/21 11:57:00;;;;;;;1.75;1.35;;;;;;;;;;5054139;28;20032;-67
2023/05/21 11:59:27;;;;;;;1.30;1.15;;;;;;;;;;5054149;28;20029;-67
2023/05/21 12:01:55;;;;;;;1.65;1.30;;;;;;;;;;5054369;28;20486;-67
2023/05/21 12:04:21;;;;;;;2.03;1.40;;;;;;;;;;5054536;28;20039;-67
2023/05/21 12:06:49;;;;;;;1.52;1.30;;;;;;;;;;5054156;28;20027;-67
2023/05/21 12:09:15;;;;;;;1.70;1.30;;;;;;;;;;5054137;28;20027;-67
2023/05/21 12:11:42;;;;;;;1.00;1.00;;;;;;;;;;5054186;28;20021;-66
2023/05/21 12:14:10;;;;;;;0.90;0.90;;;;;;;;;;5054341;28;20021;-67
2023/05/21 12:16:36;;;;;;;0.80;0.80;;;;;;;;;;5054153;28;20017;-67
2023/05/21 12:19:03;;;;;;;1.17;0.60;;;;;;;;;;5053788;28;20044;-67
2023/05/21 12:21:30;;;;;;;0.82;0.82;;;;;;;;;;5054108;28;20027;-67
2023/05/21 12:23:56;;;;;;;0.80;0.77;;;;;;;;;;5054088;28;20024;-67
2023/05/21 12:26:26;;;;;;;1.13;0.88;;;;;;;;;;5053638;28;20039;-67
2023/05/21 12:28:56;;;;;;;1.13;1.03;;;;;;;;;;5052584;28;20500;-67
2023/05/21 12:31:23;;;;;;;1.30;1.20;;;;;;;;;;5053730;28;20047;-67
2023/05/21 12:33:52;;;;;;;2.58;1.30;;;;;;;;;;5054071;28;20035;-67
2023/05/21 12:36:39;;;;;;;1.65;1.55;;;;;;;;;;5053794;28;20394;-67
2023/05/21 12:39:08;;;;;;;0.82;0.82;;;;;;;;;;5053621;28;20040;-67
2023/05/21 12:41:34;;;;;;;0.85;0.80;;;;;;;;;;5052234;28;20025;-67
2023/05/21 12:44:00;;;;;;;0.88;0.80;;;;;;;;;;5053578;28;20055;-67
2023/05/21 12:46:27;;;;;;;0.75;0.60;;;;;;;;;;5053544;28;20021;-67
2023/05/21 12:48:54;;;;;;;0.88;0.75;;;;;;;;;;5053282;28;20017;-67
2023/05/21 12:51:20;;;;;;;0.55;0.52;;;;;;;;;;5053556;28;20497;-67
2023/05/21 12:53:47;;;;;;;1.40;0.50;;;;;;;;;;5053667;28;20040;-67
2023/05/21 12:56:14;;;;;;;1.33;0.60;;;;;;;;;;5052972;28;20036;-67
2023/05/21 12:58:41;;;;;;;0.75;0.70;;;;;;;;;;5053362;28;20037;-67
2023/05/21 13:01:08;;;;;;;1.80;0.60;;;;;;;;;;5053200;28;20017;-67
2023/05/21 13:03:34;;;;;;;0.70;0.70;;;;;;;;;;5052018;28;20031;-67
2023/05/21 13:06:01;;;;;;;0.73;0.73;;;;;;;;;;5053120;28;20021;-67
2023/05/21 13:08:28;;;;;;;1.30;0.70;;;;;;;;;;5052920;28;20078;-67
2023/05/21 13:10:54;;;;;;;0.60;0.60;;;;;;;;;;5052704;28;20017;-67
2023/05/21 13:13:21;;;;;;;0.80;0.60;;;;;;;;;;5052766;28;20017;-67
2023/05/21 13:15:47;;;;;;;1.17;0.90;;;;;;;;;;5052403;28;20448;-67
2023/05/21 13:18:15;;;;;;;2.83;0.80;;;;;;;;;;5052837;28;20033;-66
2023/05/21 13:20:41;;;;;;;1.45;0.60;;;;;;;;;;5052707;28;20501;-67
2023/05/21 13:23:07;;;;;;;2.08;0.60;;;;;;;;;;5053102;28;20040;-67
2023/05/21 13:25:33;;;;;;;2.53;0.93;;;;;;;;;;5052412;28;20039;-67
2023/05/21 13:28:01;;;;;;;0.80;0.50;;;;;;;;;;5052644;28;20021;-67
2023/05/21 13:30:28;;;;;;;1.00;1.00;;;;;;;;;;5052702;28;20031;-67
2023/05/21 13:32:54;;;;;;;1.65;1.08;;;;;;;;;;5052404;28;20055;-67
2023/05/21 13:35:20;;;;;;;1.45;0.70;;;;;;;;;;5051548;28;20036;-67
2023/05/21 13:37:47;;;;;;;1.17;0.77;;;;;;;;;;5052576;28;20047;-67
2023/05/21 13:40:14;;;;;;;3.92;0.50;;;;;;;;;;5052331;28;20028;-67
2023/05/21 13:42:41;;;;;;;0.77;0.60;;;;;;;;;;5052512;28;20432;-67
2023/05/21 13:45:08;;;;;;;0.40;0.40;;;;;;;;;;5052694;28;20017;-66
2023/05/21 13:47:34;;;;;;;0.52;0.50;;;;;;;;;;5052318;28;20017;-69
2023/05/21 13:50:01;;;;;;;1.85;0.50;;;;;;;;;;5052273;28;20070;-66
2023/05/21 13:52:27;;;;;;;4.05;0.75;;;;;;;;;;5052413;28;20025;-67
2023/05/21 13:54:53;;;;;;;0.50;0.50;;;;;;;;;;5052115;28;20025;-67
2023/05/21 13:57:20;;;;;;;1.33;0.60;;;;;;;;;;5052262;28;20400;-67
2023/05/21 13:59:46;;;;;;;1.27;0.50;;;;;;;;;;5052232;28;20036;-67
2023/05/21 14:02:13;;;;;;;3.42;0.60;;;;;;;;;;5052193;28;20074;-67
2023/05/21 14:04:39;;;;;;;2.80;0.75;;;;;;;;;;5052251;28;20032;-67
2023/05/21 14:07:06;;;;;;;0.80;0.60;;;;;;;;;;5052452;28;20031;-67
2023/05/21 14:09:32;;;;;;;2.65;0.90;;;;;;;;;;5051786;28;20025;-67
2023/05/21 14:11:58;;;;;;;2.10;0.60;;;;;;;;;;5052423;28;20017;-67
2023/05/21 14:14:25;;;;;;;0.50;0.50;;;;;;;;;;5052208;28;20037;-67
2023/05/21 14:16:51;;;;;;;0.60;0.57;;;;;;;;;;5051917;28;20482;-67
2023/05/21 14:19:18;;;;;;;0.52;0.52;;;;;;;;;;5052021;28;20078;-67
2023/05/21 14:21:44;;;;;;;1.15;0.60;;;;;;;;;;5051678;28;20029;-67
2023/05/21 14:24:10;;;;;;;1.40;0.60;;;;;;;;;;5051882;28;20025;-68
2023/05/21 14:26:37;;;;;;;3.65;0.60;;;;;;;;;;5053596;28;20032;-67
2023/05/21 14:29:03;;;;;;;0.68;0.68;;;;;;;;;;5055987;28;20025;-67
2023/05/21 14:31:30;;;;;;;1.27;1.08;;;;;;;;;;5056042;28;20060;-68
2023/05/21 14:33:56;;;;;;;0.68;0.50;;;;;;;;;;5055983;28;20025;-66
2023/05/21 14:36:22;;;;;;;1.65;0.40;;;;;;;;;;5056127;28;20024;-67
2023/05/21 14:38:49;;;;;;;0.45;0.40;;;;;;;;;;5055672;28;20043;-67
2023/05/21 14:41:15;;;;;;;0.85;0.50;;;;;;;;;;5055939;28;20363;-67
2023/05/21 14:43:41;;;;;;;2.78;0.50;;;;;;;;;;5055768;28;20436;-67
2023/05/21 14:46:08;;;;;;;0.95;0.40;;;;;;;;;;5055658;28;20028;-67